createdAt,value
2023-07-18T00:00:13.380Z,162.89
2023-07-18T00:01:13.577Z,159.83
2023-07-18T00:02:13.608Z,160.89
2023-07-18T00:03:13.574Z,163.96
2023-07-18T00:04:13.697Z,160.55
2023-07-18T00:05:13.804Z,160.82
2023-07-18T00:06:13.625Z,161.15
2023-07-18T00:07:13.628Z,160.98
2023-07-18T00:08:13.624Z,159.55
2023-07-18T00:09:13.635Z,162.61
2023-07-18T00:10:13.638Z,162.24
2023-07-18T00:11:13.620Z,160.85
2023-07-18T00:12:13.707Z,163.20
2023-07-18T00:13:13.721Z,162.18
2023-07-18T00:14:13.810Z,158.97
2023-07-18T00:15:13.851Z,160.35
2023-07-18T00:16:14.032Z,160.39
2023-07-18T00:17:13.985Z,162.33
2023-07-18T00:18:14.072Z,158.34
2023-07-18T00:19:14.124Z,156.33
2023-07-18T00:20:14.172Z,154.72
2023-07-18T00:21:14.184Z,154.91
2023-07-18T00:22:14.177Z,155.43
2023-07-18T00:23:14.224Z,155.27
2023-07-18T00:24:14.169Z,158.02
2023-07-18T00:25:14.285Z,158.66
2023-07-18T00:26:14.158Z,155.15
2023-07-18T00:27:14.146Z,160.60
2023-07-18T00:28:14.160Z,154.98
2023-07-18T00:29:14.134Z,159.28
2023-07-18T00:30:14.155Z,157.84
2023-07-18T00:31:14.184Z,152.90
2023-07-18T00:32:14.225Z,154.89
2023-07-18T00:33:14.211Z,152.92
2023-07-18T00:34:14.251Z,154.47
2023-07-18T00:35:14.293Z,152.93
2023-07-18T00:36:14.285Z,152.96
2023-07-18T00:37:14.288Z,153.32
2023-07-18T00:38:14.265Z,153.43
2023-07-18T00:39:14.260Z,153.69
2023-07-18T00:40:14.258Z,153.71
2023-07-18T00:41:14.277Z,150.61
2023-07-18T00:42:14.237Z,156.05
2023-07-18T00:43:14.225Z,154.12
2023-07-18T00:44:14.240Z,152.18
2023-07-18T00:45:14.238Z,153.23
2023-07-18T00:46:14.229Z,149.85
2023-07-18T00:47:14.201Z,152.24
2023-07-18T00:48:14.203Z,152.70
2023-07-18T00:49:14.202Z,151.89
2023-07-18T00:50:14.194Z,150.96
2023-07-18T00:51:14.172Z,153.02
2023-07-18T00:52:14.175Z,153.04
2023-07-18T00:53:14.147Z,153.56
2023-07-18T00:54:14.151Z,153.31
2023-07-18T00:55:14.161Z,153.72
2023-07-18T00:56:14.147Z,153.41
2023-07-18T00:57:14.162Z,153.59
2023-07-18T00:58:14.146Z,152.21
2023-07-18T00:59:14.122Z,153.28
2023-07-18T01:00:14.123Z,155.54
2023-07-18T01:01:14.129Z,153.88
2023-07-18T01:02:14.130Z,151.22
2023-07-18T01:03:14.133Z,155.01
2023-07-18T01:04:14.077Z,151.54
2023-07-18T01:05:14.113Z,149.89
2023-07-18T01:06:14.071Z,152.49
2023-07-18T01:07:14.062Z,152.64
2023-07-18T01:08:14.049Z,152.72
2023-07-18T01:09:14.039Z,153.24
2023-07-18T01:10:14.051Z,154.00
2023-07-18T01:11:14.035Z,152.97
2023-07-18T01:12:14.032Z,155.72
2023-07-18T01:13:14.023Z,152.63
2023-07-18T01:14:14.015Z,153.12
2023-07-18T01:15:14.365Z,155.13
2023-07-18T01:16:14.029Z,155.51
2023-07-18T01:17:14.002Z,153.60
2023-07-18T01:18:14.004Z,149.41
2023-07-18T01:19:13.983Z,153.50
2023-07-18T01:20:13.984Z,153.01
2023-07-18T01:21:13.968Z,151.79
2023-07-18T01:22:13.952Z,150.90
2023-07-18T01:23:14.014Z,150.17
2023-07-18T01:24:13.944Z,149.69
2023-07-18T01:25:13.946Z,150.25
2023-07-18T01:26:13.938Z,152.67
2023-07-18T01:27:13.934Z,151.13
2023-07-18T01:28:13.979Z,151.90
2023-07-18T01:29:14.033Z,149.52
2023-07-18T01:30:14.077Z,149.52
2023-07-18T01:31:14.164Z,147.29
2023-07-18T01:32:14.126Z,147.37
2023-07-18T01:33:14.180Z,153.18
2023-07-18T01:34:14.241Z,151.82
2023-07-18T01:35:14.236Z,149.72
2023-07-18T01:36:14.233Z,150.96
2023-07-18T01:37:14.284Z,145.94
2023-07-18T01:38:14.284Z,148.15
2023-07-18T01:39:14.370Z,152.72
2023-07-18T01:40:14.391Z,147.88
2023-07-18T01:41:14.402Z,152.46
2023-07-18T01:42:14.421Z,147.46
2023-07-18T01:43:14.445Z,149.91
2023-07-18T01:44:14.486Z,151.29
2023-07-18T01:45:14.530Z,149.33
2023-07-18T01:46:14.578Z,153.24
2023-07-18T01:47:14.761Z,151.67
2023-07-18T01:48:14.695Z,152.15
2023-07-18T01:49:14.730Z,151.52
2023-07-18T01:50:14.815Z,151.72
2023-07-18T01:51:14.773Z,151.03
2023-07-18T01:52:14.805Z,149.76
2023-07-18T01:53:14.843Z,146.00
2023-07-18T01:54:14.846Z,150.17
2023-07-18T01:55:14.866Z,152.20
2023-07-18T01:56:14.841Z,152.21
2023-07-18T01:57:14.847Z,152.00
2023-07-18T01:58:14.848Z,152.64
2023-07-18T01:59:14.863Z,152.29
2023-07-18T02:00:15.040Z,152.84
2023-07-18T02:01:14.940Z,152.94
2023-07-18T02:02:14.862Z,152.30
2023-07-18T02:03:14.849Z,151.07
2023-07-18T02:04:14.820Z,149.15
2023-07-18T02:05:14.833Z,151.26
2023-07-18T02:06:14.831Z,149.56
2023-07-18T02:07:14.827Z,148.26
2023-07-18T02:08:14.826Z,147.03
2023-07-18T02:09:14.829Z,147.41
2023-07-18T02:10:14.818Z,147.19
2023-07-18T02:11:14.815Z,150.36
2023-07-18T02:12:14.817Z,148.37
2023-07-18T02:13:14.840Z,144.63
2023-07-18T02:14:14.884Z,145.83
2023-07-18T02:15:14.923Z,144.19
2023-07-18T02:16:14.949Z,148.34
2023-07-18T02:17:15.013Z,144.49
2023-07-18T02:18:15.025Z,145.87
2023-07-18T02:19:15.030Z,146.05
2023-07-18T02:20:15.072Z,146.19
2023-07-18T02:21:15.027Z,146.05
2023-07-18T02:22:15.024Z,142.13
2023-07-18T02:23:15.091Z,142.78
2023-07-18T02:24:15.036Z,142.88
2023-07-18T02:25:15.045Z,141.93
2023-07-18T02:26:15.044Z,146.50
2023-07-18T02:27:15.039Z,140.76
2023-07-18T02:28:15.031Z,140.96
2023-07-18T02:29:15.071Z,141.06
2023-07-18T02:30:15.044Z,142.28
2023-07-18T02:31:15.074Z,141.72
2023-07-18T02:32:15.018Z,140.61
2023-07-18T02:33:15.056Z,140.49
2023-07-18T02:34:15.018Z,141.56
2023-07-18T02:35:15.017Z,141.65
2023-07-18T02:36:15.018Z,142.04
2023-07-18T02:37:15.017Z,141.82
2023-07-18T02:38:15.016Z,140.39
2023-07-18T02:39:14.999Z,139.19
2023-07-18T02:40:14.995Z,137.15
2023-07-18T02:41:14.978Z,138.17
2023-07-18T02:42:15.012Z,134.81
2023-07-18T02:43:14.978Z,137.89
2023-07-18T02:44:14.989Z,138.12
2023-07-18T02:45:14.993Z,135.95
2023-07-18T02:46:15.560Z,131.73
2023-07-18T02:47:14.982Z,133.76
2023-07-18T02:48:14.982Z,132.50
2023-07-18T02:49:14.971Z,132.71
2023-07-18T02:50:14.975Z,133.34
2023-07-18T02:51:14.974Z,133.12
2023-07-18T02:52:14.978Z,133.93
2023-07-18T02:53:14.974Z,134.83
2023-07-18T02:54:14.965Z,132.09
2023-07-18T02:55:14.966Z,134.69
2023-07-18T02:56:14.948Z,133.41
2023-07-18T02:57:15.043Z,133.33
2023-07-18T02:58:14.955Z,130.40
2023-07-18T02:59:14.960Z,132.30
2023-07-18T03:00:14.953Z,131.22
2023-07-18T03:01:14.958Z,127.92
2023-07-18T03:02:14.944Z,128.06
2023-07-18T03:03:14.979Z,128.17
2023-07-18T03:04:14.925Z,128.07
2023-07-18T03:05:14.926Z,125.86
2023-07-18T03:06:14.892Z,125.78
2023-07-18T03:07:14.954Z,122.61
2023-07-18T03:08:14.885Z,123.06
2023-07-18T03:09:14.887Z,119.87
2023-07-18T03:10:14.886Z,115.34
2023-07-18T03:11:14.906Z,117.31
2023-07-18T03:12:14.874Z,118.61
2023-07-18T03:13:14.882Z,118.69
2023-07-18T03:14:14.882Z,116.37
2023-07-18T03:15:14.876Z,115.91
2023-07-18T03:16:14.928Z,112.96
2023-07-18T03:17:14.894Z,109.61
2023-07-18T03:18:14.853Z,100.99
2023-07-18T03:19:14.850Z,101.09
2023-07-18T03:20:14.854Z,101.11
2023-07-18T03:21:14.833Z,102.16
2023-07-18T03:22:14.820Z,101.58
2023-07-18T03:23:14.877Z,101.59
2023-07-18T03:24:14.829Z,102.04
2023-07-18T03:25:14.833Z,102.78
2023-07-18T03:26:14.825Z,103.01
2023-07-18T03:27:14.834Z,103.53
2023-07-18T03:28:14.828Z,103.01
2023-07-18T03:29:14.829Z,103.74
2023-07-18T03:30:14.856Z,103.42
2023-07-18T03:31:14.866Z,103.06
2023-07-18T03:32:14.912Z,98.15
2023-07-18T03:33:14.839Z,94.84
2023-07-18T03:34:14.844Z,96.08
2023-07-18T03:35:14.838Z,95.18
2023-07-18T03:36:14.843Z,95.34
2023-07-18T03:37:14.853Z,97.64
2023-07-18T03:38:14.894Z,92.00
2023-07-18T03:39:14.949Z,91.91
2023-07-18T03:40:14.876Z,88.48
2023-07-18T03:41:14.871Z,91.90
2023-07-18T03:42:14.862Z,90.59
2023-07-18T03:43:14.867Z,89.76
2023-07-18T03:44:14.859Z,88.02
2023-07-18T03:45:14.891Z,85.98
2023-07-18T03:46:14.955Z,83.74
2023-07-18T03:47:20.640Z,84.62
2023-07-18T03:48:15.982Z,84.89
2023-07-18T03:49:14.933Z,85.34
2023-07-18T03:50:14.960Z,85.92
2023-07-18T03:51:14.927Z,85.17
2023-07-18T03:52:14.944Z,88.18
2023-07-18T03:53:14.946Z,85.37
2023-07-18T03:54:14.938Z,86.65
2023-07-18T03:55:14.966Z,84.79
2023-07-18T03:56:14.947Z,83.92
2023-07-18T03:57:14.965Z,85.27
2023-07-18T03:58:14.969Z,83.00
2023-07-18T03:59:14.983Z,83.41
2023-07-18T04:00:15.399Z,83.58
2023-07-18T04:01:15.074Z,83.89
2023-07-18T04:02:15.002Z,85.16
2023-07-18T04:03:15.049Z,85.70
2023-07-18T04:04:15.040Z,83.21
2023-07-18T04:05:15.040Z,84.81
2023-07-18T04:06:15.031Z,79.00
2023-07-18T04:07:15.010Z,80.56
2023-07-18T04:08:15.027Z,79.78
2023-07-18T04:09:15.045Z,79.99
2023-07-18T04:10:15.029Z,80.50
2023-07-18T04:11:15.046Z,80.80
2023-07-18T04:12:15.033Z,80.77
2023-07-18T04:13:15.022Z,80.67
2023-07-18T04:14:15.037Z,76.23
2023-07-18T04:15:15.053Z,77.47
2023-07-18T04:16:15.085Z,79.31
2023-07-18T04:17:15.041Z,78.35
2023-07-18T04:18:15.100Z,78.32
2023-07-18T04:19:15.071Z,77.23
2023-07-18T04:20:15.091Z,77.47
2023-07-18T04:21:15.077Z,77.59
2023-07-18T04:22:15.070Z,79.93
2023-07-18T04:23:15.147Z,80.91
2023-07-18T04:24:15.123Z,77.33
2023-07-18T04:25:15.192Z,80.81
2023-07-18T04:26:15.213Z,80.92
2023-07-18T04:27:15.251Z,79.23
2023-07-18T04:28:15.289Z,81.89
2023-07-18T04:29:15.339Z,81.33
2023-07-18T04:30:15.397Z,82.37
2023-07-18T04:31:17.789Z,80.38
2023-07-18T04:32:15.462Z,80.54
2023-07-18T04:33:15.448Z,80.76
2023-07-18T04:34:15.431Z,80.69
2023-07-18T04:35:15.505Z,81.34
2023-07-18T04:36:15.429Z,83.05
2023-07-18T04:37:15.424Z,81.35
2023-07-18T04:38:15.442Z,86.16
2023-07-18T04:39:15.456Z,88.58
2023-07-18T04:40:15.470Z,86.92
2023-07-18T04:41:15.466Z,85.58
2023-07-18T04:42:15.465Z,89.39
2023-07-18T04:43:15.480Z,87.18
2023-07-18T04:44:15.485Z,85.74
2023-07-18T04:45:15.501Z,88.04
2023-07-18T04:46:15.522Z,89.78
2023-07-18T04:47:15.580Z,89.88
2023-07-18T04:48:15.591Z,89.97
2023-07-18T04:49:15.537Z,90.52
2023-07-18T04:50:15.549Z,90.61
2023-07-18T04:51:15.558Z,91.31
2023-07-18T04:52:15.573Z,88.57
2023-07-18T04:53:15.569Z,88.52
2023-07-18T04:54:15.588Z,89.12
2023-07-18T04:55:15.587Z,89.32
2023-07-18T04:56:15.586Z,89.49
2023-07-18T04:57:15.591Z,89.60
2023-07-18T04:58:15.596Z,90.47
2023-07-18T04:59:15.601Z,89.18
2023-07-18T05:00:15.628Z,90.11
2023-07-18T05:01:15.712Z,90.47
2023-07-18T05:02:15.636Z,88.99
2023-07-18T05:03:15.843Z,89.31
2023-07-18T05:04:15.708Z,91.10
2023-07-18T05:05:15.680Z,93.31
2023-07-18T05:06:15.677Z,91.32
2023-07-18T05:07:15.669Z,93.06
2023-07-18T05:08:15.676Z,92.22
2023-07-18T05:09:15.730Z,92.47
2023-07-18T05:10:15.780Z,90.91
2023-07-18T05:11:15.858Z,93.83
2023-07-18T05:12:15.927Z,95.04
2023-07-18T05:13:15.962Z,95.65
2023-07-18T05:14:15.999Z,97.91
2023-07-18T05:15:16.064Z,94.05
2023-07-18T05:16:16.143Z,96.38
2023-07-18T05:17:16.169Z,93.84
2023-07-18T05:18:16.232Z,97.48
2023-07-18T05:19:16.274Z,95.32
2023-07-18T05:20:16.345Z,92.85
2023-07-18T05:21:16.461Z,95.65
2023-07-18T05:22:16.446Z,94.49
2023-07-18T05:23:16.534Z,95.75
2023-07-18T05:24:16.563Z,96.82
2023-07-18T05:25:16.592Z,96.39
2023-07-18T05:26:16.691Z,96.08
2023-07-18T05:27:16.693Z,94.55
2023-07-18T05:28:16.755Z,94.68
2023-07-18T05:29:16.814Z,93.31
2023-07-18T05:30:16.924Z,96.29
2023-07-18T05:31:17.270Z,95.29
2023-07-18T05:32:16.975Z,96.42
2023-07-18T05:33:17.034Z,93.38
2023-07-18T05:34:17.084Z,97.28
2023-07-18T05:35:17.218Z,94.81
2023-07-18T05:36:17.201Z,96.30
2023-07-18T05:37:17.261Z,99.68
2023-07-18T05:38:17.318Z,98.96
2023-07-18T05:39:17.365Z,99.01
2023-07-18T05:40:21.759Z,99.02
2023-07-18T05:41:18.763Z,99.20
2023-07-18T05:42:17.419Z,99.38
2023-07-18T05:43:17.426Z,99.62
2023-07-18T05:44:17.419Z,99.58
2023-07-18T05:45:17.436Z,98.74
2023-07-18T05:46:17.500Z,100.98
2023-07-18T05:47:17.456Z,99.00
2023-07-18T05:48:17.431Z,99.69
2023-07-18T05:49:17.450Z,100.09
2023-07-18T05:50:17.458Z,96.86
2023-07-18T05:51:17.809Z,99.95
2023-07-18T05:52:17.472Z,100.14
2023-07-18T05:53:17.522Z,98.16
2023-07-18T05:54:17.562Z,101.83
2023-07-18T05:55:17.741Z,98.01
2023-07-18T05:56:17.666Z,98.57
2023-07-18T05:57:17.711Z,98.54
2023-07-18T05:58:17.788Z,97.46
2023-07-18T05:59:17.807Z,98.45
2023-07-18T06:00:17.877Z,100.15
2023-07-18T06:01:18.266Z,99.33
2023-07-18T06:02:18.017Z,99.55
2023-07-18T06:03:18.128Z,99.97
2023-07-18T06:04:18.195Z,99.32
2023-07-18T06:05:18.139Z,99.83
2023-07-18T06:06:18.185Z,98.24
2023-07-18T06:07:18.253Z,96.23
2023-07-18T06:08:18.303Z,97.05
2023-07-18T06:09:18.336Z,96.42
2023-07-18T06:10:18.420Z,97.13
2023-07-18T06:11:18.559Z,97.77
2023-07-18T06:12:18.519Z,96.89
2023-07-18T06:13:18.530Z,97.64
2023-07-18T06:14:18.580Z,97.56
2023-07-18T06:15:18.683Z,98.74
2023-07-18T06:16:18.700Z,95.29
2023-07-18T06:17:18.765Z,95.56
2023-07-18T06:18:21.455Z,95.45
2023-07-18T06:19:18.767Z,98.65
2023-07-18T06:20:18.781Z,95.97
2023-07-18T06:21:19.231Z,93.92
2023-07-18T06:22:18.751Z,96.07
2023-07-18T06:23:18.770Z,95.30
2023-07-18T06:24:20.032Z,92.94
2023-07-18T06:25:18.807Z,89.72
2023-07-18T06:26:18.749Z,86.49
2023-07-18T06:27:18.800Z,88.12
2023-07-18T06:28:18.783Z,87.89
2023-07-18T06:29:18.759Z,85.34
2023-07-18T06:30:18.800Z,89.71
2023-07-18T06:31:19.338Z,89.82
2023-07-18T06:32:18.809Z,89.73
2023-07-18T06:33:18.809Z,88.47
2023-07-18T06:34:19.056Z,86.33
2023-07-18T06:35:23.755Z,90.26
2023-07-18T06:36:19.855Z,89.78
2023-07-18T06:37:18.833Z,89.17
2023-07-18T06:38:18.858Z,85.26
2023-07-18T06:39:18.840Z,82.40
2023-07-18T06:40:18.859Z,79.11
2023-07-18T06:41:19.091Z,80.43
2023-07-18T06:42:18.845Z,79.34
2023-07-18T06:43:18.840Z,81.91
2023-07-18T06:44:18.841Z,78.88
2023-07-18T06:45:18.860Z,77.63
2023-07-18T06:46:18.878Z,76.15
2023-07-18T06:47:18.925Z,79.18
2023-07-18T06:48:18.867Z,76.26
2023-07-18T06:49:18.849Z,78.51
2023-07-18T06:50:18.858Z,78.57
2023-07-18T06:51:19.215Z,74.97
2023-07-18T06:52:18.901Z,74.03
2023-07-18T06:53:18.864Z,71.66
2023-07-18T06:54:18.883Z,67.30
2023-07-18T06:55:18.904Z,69.28
2023-07-18T06:56:18.882Z,69.43
2023-07-18T06:57:18.898Z,65.87
2023-07-18T06:58:18.887Z,65.43
2023-07-18T06:59:18.902Z,65.53
2023-07-18T07:00:18.945Z,63.69
2023-07-18T07:01:19.240Z,56.63
2023-07-18T07:02:18.919Z,55.92
2023-07-18T07:03:19.138Z,54.58
2023-07-18T07:04:18.914Z,54.80
2023-07-18T07:05:18.915Z,46.85
2023-07-18T07:06:18.913Z,43.70
2023-07-18T07:07:18.950Z,42.99
2023-07-18T07:08:18.920Z,42.76
2023-07-18T07:09:18.896Z,36.01
2023-07-18T07:10:18.924Z,39.25
2023-07-18T07:11:19.328Z,32.98
2023-07-18T07:12:34.632Z,26.21
2023-07-18T07:13:20.053Z,26.35
2023-07-18T07:14:19.030Z,26.27
2023-07-18T07:15:19.028Z,22.12
2023-07-18T07:16:19.084Z,21.41
2023-07-18T07:17:19.009Z,20.55
2023-07-18T07:18:19.006Z,26.20
2023-07-18T07:19:18.979Z,25.57
2023-07-18T07:20:18.983Z,27.63
2023-07-18T07:21:19.463Z,25.82
2023-07-18T07:22:19.006Z,25.96
2023-07-18T07:23:19.014Z,25.14
2023-07-18T07:24:19.009Z,19.05
2023-07-18T07:25:19.018Z,19.54
2023-07-18T07:26:18.983Z,15.25
2023-07-18T07:27:18.983Z,9.36
2023-07-18T07:28:18.962Z,1.49
2023-07-18T07:29:19.649Z,0.00
2023-07-18T07:30:18.941Z,25.00
2023-07-18T07:31:19.537Z,27.34
2023-07-18T07:32:18.912Z,29.99
2023-07-18T07:33:19.498Z,30.55
2023-07-18T07:34:18.912Z,26.41
2023-07-18T07:35:18.964Z,25.40
2023-07-18T07:36:18.933Z,25.63
2023-07-18T07:37:18.909Z,25.51
2023-07-18T07:38:18.957Z,18.51
2023-07-18T07:39:18.902Z,13.49
2023-07-18T07:40:18.886Z,13.43
2023-07-18T07:41:19.137Z,25.00
2023-07-18T07:42:18.863Z,28.25
2023-07-18T07:43:18.845Z,26.04
2023-07-18T07:44:18.873Z,27.97
2023-07-18T07:45:18.852Z,25.73
2023-07-18T07:46:18.880Z,25.86
2023-07-18T07:47:18.880Z,25.00
2023-07-18T07:48:18.934Z,27.34
2023-07-18T07:49:18.927Z,25.93
2023-07-18T07:50:18.955Z,26.00
2023-07-18T07:51:19.884Z,28.62
2023-07-18T07:52:18.994Z,27.26
2023-07-18T07:53:19.763Z,28.40
2023-07-18T07:54:19.038Z,25.00
2023-07-18T07:55:19.209Z,27.96
2023-07-18T07:56:19.067Z,25.54
2023-07-18T07:57:19.130Z,27.68
2023-07-18T07:58:19.139Z,29.64
2023-07-18T07:59:19.142Z,26.88
2023-07-18T08:00:19.139Z,27.01
2023-07-18T08:01:19.560Z,25.55
2023-07-18T08:02:19.243Z,25.34
2023-07-18T08:03:19.182Z,26.84
2023-07-18T08:04:19.243Z,26.88
2023-07-18T08:05:19.368Z,27.12
2023-07-18T08:06:19.157Z,27.15
2023-07-18T08:07:19.119Z,23.81
2023-07-18T08:08:19.135Z,22.79
2023-07-18T08:09:19.092Z,26.53
2023-07-18T08:10:19.233Z,26.71
2023-07-18T08:11:19.208Z,25.53
2023-07-18T08:12:19.045Z,25.76
2023-07-18T08:13:19.030Z,26.42
2023-07-18T08:14:19.028Z,25.30
2023-07-18T08:15:19.066Z,25.98
2023-07-18T08:16:19.034Z,28.52
2023-07-18T08:17:19.103Z,26.94
2023-07-18T08:18:18.974Z,28.49
2023-07-18T08:19:18.957Z,32.62
2023-07-18T08:20:18.944Z,32.77
2023-07-18T08:21:19.071Z,29.63
2023-07-18T08:22:18.892Z,32.12
2023-07-18T08:23:18.976Z,31.62
2023-07-18T08:24:18.879Z,31.06
2023-07-18T08:25:18.863Z,29.07
2023-07-18T08:26:19.272Z,33.35
2023-07-18T08:27:18.860Z,29.27
2023-07-18T08:28:18.850Z,31.03
2023-07-18T08:29:18.996Z,30.77
2023-07-18T08:30:18.818Z,30.54
2023-07-18T08:31:19.039Z,30.70
2023-07-18T08:32:18.837Z,30.77
2023-07-18T08:33:18.792Z,31.14
2023-07-18T08:34:18.756Z,28.66
2023-07-18T08:35:18.757Z,30.69
2023-07-18T08:36:18.723Z,31.88
2023-07-18T08:37:18.699Z,31.79
2023-07-18T08:38:18.713Z,29.54
2023-07-18T08:39:18.699Z,31.17
2023-07-18T08:40:18.679Z,32.49
2023-07-18T08:41:18.928Z,32.43
2023-07-18T08:42:18.677Z,28.04
2023-07-18T08:43:18.644Z,26.41
2023-07-18T08:44:18.646Z,25.93
2023-07-18T08:45:18.713Z,26.86
2023-07-18T08:46:18.754Z,25.57
2023-07-18T08:47:18.626Z,26.41
2023-07-18T08:48:18.644Z,25.06
2023-07-18T08:49:18.740Z,25.13
2023-07-18T08:50:18.580Z,31.18
2023-07-18T08:51:19.451Z,30.02
2023-07-18T08:52:18.555Z,28.49
2023-07-18T08:53:18.532Z,29.36
2023-07-18T08:54:18.527Z,29.36
2023-07-18T08:55:18.558Z,26.46
2023-07-18T08:56:18.762Z,26.48
2023-07-18T08:57:18.465Z,27.40
2023-07-18T08:58:18.464Z,25.39
2023-07-18T08:59:18.453Z,25.78
2023-07-18T09:00:18.430Z,27.77
2023-07-18T09:01:18.851Z,25.00
2023-07-18T09:02:18.415Z,25.40
2023-07-18T09:03:18.370Z,26.70
2023-07-18T09:04:18.414Z,25.60
2023-07-18T09:05:18.364Z,29.33
2023-07-18T09:06:18.338Z,24.52
2023-07-18T09:07:18.322Z,28.14
2023-07-18T09:08:18.363Z,29.01
2023-07-18T09:09:18.362Z,27.64
2023-07-18T09:10:18.424Z,25.13
2023-07-18T09:11:18.738Z,26.10
2023-07-18T09:12:18.392Z,28.68
2023-07-18T09:13:18.388Z,25.00
2023-07-18T09:14:18.422Z,28.51
2023-07-18T09:15:18.402Z,25.00
2023-07-18T09:16:18.434Z,25.00
2023-07-18T09:17:18.501Z,25.00
2023-07-18T09:18:18.360Z,25.95
2023-07-18T09:19:18.341Z,28.17
2023-07-18T09:20:18.435Z,28.39
2023-07-18T09:21:18.621Z,37.95
2023-07-18T09:22:18.431Z,44.46
2023-07-18T09:23:18.401Z,48.28
2023-07-18T09:24:18.381Z,48.68
2023-07-18T09:25:18.365Z,52.92
2023-07-18T09:26:18.419Z,57.26
2023-07-18T09:27:18.470Z,62.32
2023-07-18T09:28:18.545Z,67.38
2023-07-18T09:29:18.519Z,72.89
2023-07-18T09:30:18.574Z,72.32
2023-07-18T09:31:18.888Z,76.00
2023-07-18T09:32:19.399Z,78.24
2023-07-18T09:33:18.646Z,80.97
2023-07-18T09:34:18.682Z,84.12
2023-07-18T09:35:18.750Z,86.54
2023-07-18T09:36:18.784Z,85.37
2023-07-18T09:37:18.796Z,84.62
2023-07-18T09:38:18.828Z,81.19
2023-07-18T09:39:18.865Z,75.41
2023-07-18T09:40:19.002Z,78.69
2023-07-18T09:41:21.187Z,78.78
2023-07-18T09:42:20.158Z,79.58
2023-07-18T09:43:18.817Z,79.35
2023-07-18T09:44:31.313Z,81.99
2023-07-18T09:45:19.742Z,79.49
2023-07-18T09:46:18.906Z,81.11
2023-07-18T09:47:18.733Z,84.23
2023-07-18T09:48:18.677Z,89.59
2023-07-18T09:49:18.663Z,98.88
2023-07-18T09:50:19.242Z,102.01
2023-07-18T09:51:18.843Z,103.38
2023-07-18T09:52:18.570Z,102.01
2023-07-18T09:53:18.542Z,103.75
2023-07-18T09:54:18.532Z,103.98
2023-07-18T09:55:18.515Z,103.68
2023-07-18T09:56:18.534Z,103.32
2023-07-18T09:57:18.549Z,102.65
2023-07-18T09:58:18.591Z,101.89
2023-07-18T09:59:18.690Z,99.75
2023-07-18T10:00:18.693Z,106.36
2023-07-18T10:01:19.002Z,105.82
2023-07-18T10:02:18.758Z,103.17
2023-07-18T10:03:18.828Z,103.51
2023-07-18T10:04:18.717Z,100.98
2023-07-18T10:05:18.701Z,102.57
2023-07-18T10:06:18.748Z,105.73
2023-07-18T10:07:18.690Z,107.12
2023-07-18T10:08:18.737Z,108.73
2023-07-18T10:09:18.634Z,108.69
2023-07-18T10:10:18.613Z,110.67
2023-07-18T10:11:18.959Z,110.22
2023-07-18T10:12:18.612Z,109.90
2023-07-18T10:13:19.317Z,111.32
2023-07-18T10:14:18.645Z,110.74
2023-07-18T10:15:18.667Z,112.91
2023-07-18T10:16:18.748Z,110.69
2023-07-18T10:17:18.816Z,109.41
2023-07-18T10:18:18.887Z,115.77
2023-07-18T10:19:18.818Z,117.46
2023-07-18T10:20:18.860Z,121.27
2023-07-18T10:21:19.168Z,115.51
2023-07-18T10:22:18.928Z,120.50
2023-07-18T10:23:18.949Z,129.56
2023-07-18T10:24:18.996Z,133.08
2023-07-18T10:25:19.062Z,128.92
2023-07-18T10:26:19.078Z,130.35
2023-07-18T10:27:19.112Z,137.20
2023-07-18T10:28:19.075Z,137.35
2023-07-18T10:29:19.074Z,137.61
2023-07-18T10:30:19.041Z,140.86
2023-07-18T10:31:19.286Z,144.85
2023-07-18T10:32:19.015Z,148.64
2023-07-18T10:33:18.980Z,150.03
2023-07-18T10:34:18.950Z,150.20
2023-07-18T10:35:18.945Z,149.26
2023-07-18T10:36:18.916Z,151.53
2023-07-18T10:37:18.939Z,151.77
2023-07-18T10:38:18.952Z,150.26
2023-07-18T10:39:18.986Z,149.90
2023-07-18T10:40:19.005Z,151.70
2023-07-18T10:41:19.300Z,151.19
2023-07-18T10:42:19.054Z,151.84
2023-07-18T10:43:19.066Z,154.83
2023-07-18T10:44:19.063Z,159.38
2023-07-18T10:45:19.759Z,158.11
2023-07-18T10:46:19.180Z,157.14
2023-07-18T10:47:19.164Z,157.49
2023-07-18T10:48:19.234Z,154.10
2023-07-18T10:49:19.188Z,156.62
2023-07-18T10:50:20.440Z,156.74
2023-07-18T10:51:19.266Z,156.80
2023-07-18T10:52:19.092Z,156.85
2023-07-18T10:53:19.091Z,151.67
2023-07-18T10:54:19.051Z,148.43
2023-07-18T10:55:19.022Z,150.28
2023-07-18T10:56:18.993Z,148.84
2023-07-18T10:57:18.984Z,145.98
2023-07-18T10:58:18.995Z,150.29
2023-07-18T10:59:18.922Z,150.20
2023-07-18T11:00:18.897Z,147.32
2023-07-18T11:01:19.478Z,142.05
2023-07-18T11:02:19.822Z,142.25
2023-07-18T11:03:18.801Z,142.30
2023-07-18T11:04:18.966Z,143.36
2023-07-18T11:05:18.732Z,144.06
2023-07-18T11:06:18.697Z,143.05
2023-07-18T11:07:18.700Z,144.07
2023-07-18T11:08:18.667Z,144.73
2023-07-18T11:09:20.162Z,141.64
2023-07-18T11:10:18.645Z,141.78
2023-07-18T11:11:19.001Z,142.40
2023-07-18T11:12:18.558Z,143.26
2023-07-18T11:13:18.568Z,143.06
2023-07-18T11:14:18.511Z,145.82
2023-07-18T11:15:18.476Z,144.57
2023-07-18T11:16:18.468Z,142.91
2023-07-18T11:17:18.474Z,143.50
2023-07-18T11:18:18.399Z,139.58
2023-07-18T11:19:18.368Z,140.74
2023-07-18T11:20:18.392Z,139.67
2023-07-18T11:21:18.341Z,143.58
2023-07-18T11:22:18.323Z,141.15
2023-07-18T11:23:18.273Z,147.69
2023-07-18T11:24:18.255Z,147.97
2023-07-18T11:25:18.236Z,148.06
2023-07-18T11:26:18.235Z,147.62
2023-07-18T11:27:18.163Z,145.98
2023-07-18T11:28:18.134Z,148.49
2023-07-18T11:29:18.130Z,143.74
2023-07-18T11:30:18.092Z,146.56
2023-07-18T11:31:26.652Z,149.42
2023-07-18T11:32:19.064Z,149.56
2023-07-18T11:33:18.017Z,150.28
2023-07-18T11:34:17.986Z,151.22
2023-07-18T11:35:17.956Z,151.42
2023-07-18T11:36:17.953Z,148.12
2023-07-18T11:37:17.921Z,142.03
2023-07-18T11:38:17.887Z,145.08
2023-07-18T11:39:19.996Z,149.56
2023-07-18T11:40:18.061Z,150.33
2023-07-18T11:41:18.329Z,154.10
2023-07-18T11:42:18.146Z,154.45
2023-07-18T11:43:18.140Z,154.14
2023-07-18T11:44:18.182Z,148.59
2023-07-18T11:45:20.742Z,147.48
2023-07-18T11:46:18.144Z,149.93
2023-07-18T11:47:18.136Z,142.84
2023-07-18T11:48:18.142Z,143.33
2023-07-18T11:49:18.048Z,144.78
2023-07-18T11:50:18.019Z,138.17
2023-07-18T11:51:18.236Z,138.55
2023-07-18T11:52:17.981Z,138.09
2023-07-18T11:53:17.947Z,135.13
2023-07-18T11:54:17.920Z,136.81
2023-07-18T11:55:17.884Z,136.87
2023-07-18T11:56:17.853Z,131.16
2023-07-18T11:57:17.892Z,130.48
2023-07-18T11:58:17.821Z,130.67
2023-07-18T11:59:17.793Z,129.85
2023-07-18T12:00:17.783Z,126.01
2023-07-18T12:01:18.029Z,126.07
2023-07-18T12:02:17.749Z,124.74
2023-07-18T12:03:17.781Z,123.42
2023-07-18T12:04:17.827Z,119.66
2023-07-18T12:05:18.152Z,120.41
2023-07-18T12:06:18.054Z,118.32
2023-07-18T12:07:17.790Z,116.79
2023-07-18T12:08:17.849Z,114.81
2023-07-18T12:09:17.842Z,113.88
2023-07-18T12:10:17.876Z,111.39
2023-07-18T12:11:17.916Z,111.90
2023-07-18T12:12:17.961Z,113.64
2023-07-18T12:13:18.018Z,110.53
2023-07-18T12:14:18.024Z,107.72
2023-07-18T12:15:18.052Z,104.68
2023-07-18T12:16:18.096Z,104.29
2023-07-18T12:17:18.070Z,106.80
2023-07-18T12:18:18.064Z,107.49
2023-07-18T12:19:18.099Z,106.32
2023-07-18T12:20:18.139Z,105.80
2023-07-18T12:21:18.503Z,105.74
2023-07-18T12:22:18.170Z,106.69
2023-07-18T12:23:18.243Z,106.11
2023-07-18T12:24:18.246Z,105.79
2023-07-18T12:25:18.275Z,105.53
2023-07-18T12:26:18.281Z,107.63
2023-07-18T12:27:18.289Z,106.74
2023-07-18T12:28:18.318Z,103.30
2023-07-18T12:29:18.376Z,105.07
2023-07-18T12:30:18.354Z,104.65
2023-07-18T12:31:19.089Z,104.80
2023-07-18T12:32:18.498Z,104.79
2023-07-18T12:33:18.305Z,105.15
2023-07-18T12:34:18.291Z,103.27
2023-07-18T12:35:18.270Z,104.76
2023-07-18T12:36:18.415Z,104.25
2023-07-18T12:37:18.199Z,102.08
2023-07-18T12:38:18.206Z,99.19
2023-07-18T12:39:18.164Z,100.10
2023-07-18T12:40:18.266Z,99.22